createdAt,value
2019-02-11T00:00:08.951Z,0.60
2019-02-11T00:02:38.475Z,0.60
2019-02-11T00:05:06.456Z,0.60
2019-02-11T00:07:34.447Z,1.05
2019-02-11T00:10:02.371Z,1.32
2019-02-11T00:12:30.359Z,0.80
2019-02-11T00:14:58.523Z,2.45
2019-02-11T00:17:26.755Z,0.70
2019-02-11T00:19:54.672Z,0.80
2019-02-11T00:22:22.583Z,1.15
2019-02-11T00:24:50.523Z,0.60
2019-02-11T00:27:18.442Z,1.75
2019-02-11T00:29:46.358Z,0.80
2019-02-11T00:32:14.278Z,0.62
2019-02-11T00:34:42.190Z,2.37
2019-02-11T00:37:10.103Z,0.70
2019-02-11T00:39:38.313Z,0.60
2019-02-11T00:42:06.452Z,0.60
2019-02-11T00:44:34.374Z,0.60
2019-02-11T00:47:02.287Z,0.75
2019-02-11T00:49:30.197Z,0.53
2019-02-11T00:51:58.111Z,0.60
2019-02-11T00:54:26.034Z,0.60
2019-02-11T00:56:53.950Z,0.60
2019-02-11T00:59:21.872Z,1.05
2019-02-11T01:01:50.069Z,0.50
2019-02-11T01:04:17.978Z,0.50
2019-02-11T01:06:45.901Z,0.70
2019-02-11T01:09:14.036Z,0.60
2019-02-11T01:11:41.948Z,0.50
2019-02-11T01:14:09.898Z,0.70
2019-02-11T01:16:38.049Z,0.75
2019-02-11T01:19:05.959Z,0.68
2019-02-11T01:21:33.887Z,0.50
2019-02-11T01:24:01.813Z,0.65
2019-02-11T01:26:30.786Z,0.60
2019-02-11T01:28:58.698Z,0.60
2019-02-11T01:31:26.877Z,0.47
2019-02-11T01:33:54.806Z,0.40
2019-02-11T01:36:22.715Z,0.45
2019-02-11T01:38:50.631Z,0.50
2019-02-11T01:41:18.787Z,0.45
2019-02-11T01:43:46.724Z,0.55
2019-02-11T01:46:14.626Z,0.50
2019-02-11T01:48:42.543Z,0.50
2019-02-11T01:51:10.475Z,0.50
2019-02-11T01:53:38.410Z,0.80
2019-02-11T01:56:06.315Z,0.78
2019-02-11T01:58:34.231Z,0.50
2019-02-11T02:01:02.152Z,0.65
2019-02-11T02:03:31.355Z,0.50
2019-02-11T02:05:59.267Z,0.50
2019-02-11T02:08:27.186Z,0.57
2019-02-11T02:10:55.372Z,0.50
2019-02-11T02:13:23.547Z,0.70
2019-02-11T02:15:51.455Z,0.62
2019-02-11T02:18:19.370Z,0.50
2019-02-11T02:20:47.283Z,0.50
2019-02-11T02:23:15.202Z,0.50
2019-02-11T02:25:43.107Z,0.60
2019-02-11T02:28:11.026Z,0.45
2019-02-11T02:30:38.939Z,0.62
2019-02-11T02:33:06.859Z,0.53
2019-02-11T02:35:34.775Z,0.47
2019-02-11T02:38:02.695Z,0.50
2019-02-11T02:40:30.616Z,0.75
2019-02-11T02:42:58.529Z,1.55
2019-02-11T02:45:26.440Z,0.60
2019-02-11T02:47:54.354Z,0.55
2019-02-11T02:50:22.266Z,0.50
2019-02-11T02:52:50.178Z,0.50
2019-02-11T02:55:18.087Z,0.53
2019-02-11T02:57:46.011Z,0.55
2019-02-11T03:00:13.915Z,0.50
2019-02-11T03:02:41.904Z,0.50
2019-02-11T03:05:09.815Z,0.70
2019-02-11T03:07:37.735Z,0.60
2019-02-11T03:10:07.112Z,0.70
2019-02-11T03:12:35.103Z,0.47
2019-02-11T03:15:03.282Z,0.50
2019-02-11T03:17:31.199Z,0.50
2019-02-11T03:19:59.103Z,0.60
2019-02-11T03:22:27.025Z,0.70
2019-02-11T03:24:54.928Z,0.82
2019-02-11T03:27:22.843Z,0.70
2019-02-11T03:29:50.755Z,0.70
2019-02-11T03:32:18.689Z,0.60
2019-02-11T03:34:46.600Z,0.70
2019-02-11T03:37:14.508Z,0.70
2019-02-11T03:39:42.423Z,1.55
2019-02-11T03:42:10.339Z,1.05
2019-02-11T03:44:38.344Z,0.72
2019-02-11T03:47:07.219Z,0.70
2019-02-11T03:49:35.155Z,0.98
2019-02-11T03:52:03.049Z,1.02
2019-02-11T03:54:31.276Z,0.90
2019-02-11T03:56:59.191Z,1.15
2019-02-11T03:59:27.352Z,0.70
2019-02-11T04:01:55.259Z,0.80
2019-02-11T04:04:23.172Z,0.82
2019-02-11T04:06:51.136Z,1.00
2019-02-11T04:09:19.048Z,0.95
2019-02-11T04:11:46.955Z,0.80
2019-02-11T04:14:24.167Z,1.10
2019-02-11T04:16:44.495Z,1.15
2019-02-11T04:19:12.412Z,1.87
2019-02-11T04:21:40.331Z,1.60
2019-02-11T04:24:08.239Z,2.12
2019-02-11T04:26:36.146Z,1.60
2019-02-11T04:29:04.075Z,2.12
2019-02-11T04:31:31.983Z,3.60
2019-02-11T04:33:59.899Z,3.67
2019-02-11T04:36:27.812Z,4.10
2019-02-11T04:38:55.731Z,5.30
2019-02-11T04:41:23.639Z,4.45
2019-02-11T04:43:51.592Z,7.50
2019-02-11T04:46:19.506Z,4.50
2019-02-11T04:48:47.451Z,4.92
2019-02-11T04:51:15.353Z,6.55
2019-02-11T04:53:43.503Z,7.95
2019-02-11T04:56:11.426Z,9.15
2019-02-11T04:58:39.336Z,6.17
2019-02-11T05:01:07.243Z,7.35
2019-02-11T05:03:35.161Z,9.95
2019-02-11T05:06:03.097Z,9.38
2019-02-11T05:08:31.239Z,11.43
2019-02-11T05:10:59.389Z,7.37
2019-02-11T05:13:27.551Z,9.03
2019-02-11T05:15:55.471Z,11.10
2019-02-11T05:18:23.380Z,8.78
2019-02-11T05:20:51.296Z,9.03
2019-02-11T05:23:19.223Z,5.85
2019-02-11T05:25:47.140Z,9.50
2019-02-11T05:28:15.058Z,7.08
2019-02-11T05:30:42.973Z,6.35
2019-02-11T05:33:10.996Z,7.35
2019-02-11T05:35:38.908Z,6.37
2019-02-11T05:38:07.076Z,5.25
2019-02-11T05:40:35.463Z,5.60
2019-02-11T05:43:03.381Z,5.72
2019-02-11T05:45:31.294Z,8.10
2019-02-11T05:47:59.253Z,4.45
2019-02-11T05:50:27.149Z,6.85
2019-02-11T05:52:55.091Z,7.97
2019-02-11T05:55:23.949Z,6.75
2019-02-11T05:57:52.302Z,8.30
2019-02-11T06:00:20.253Z,8.73
2019-02-11T06:02:48.465Z,7.95
2019-02-11T06:05:16.384Z,9.15
2019-02-11T06:07:44.322Z,11.73
2019-02-11T06:10:12.255Z,12.88
2019-02-11T06:12:40.180Z,9.00
2019-02-11T06:15:08.162Z,8.68
2019-02-11T06:17:37.167Z,10.53
2019-02-11T06:20:06.359Z,13.08
2019-02-11T06:22:34.288Z,11.15
2019-02-11T06:25:02.224Z,9.73
2019-02-11T06:27:30.158Z,11.55
2019-02-11T06:29:58.082Z,13.20
2019-02-11T06:32:26.012Z,13.03
2019-02-11T06:34:53.942Z,11.73
2019-02-11T06:37:21.877Z,9.53
2019-02-11T06:39:49.795Z,14.43
2019-02-11T06:42:17.735Z,11.05
2019-02-11T06:44:45.664Z,12.82
2019-02-11T06:47:13.591Z,14.23
2019-02-11T06:49:41.901Z,16.70
2019-02-11T06:52:09.839Z,15.30
2019-02-11T06:54:37.775Z,13.00
2019-02-11T06:57:05.716Z,11.75
2019-02-11T06:59:33.891Z,14.58
2019-02-11T07:02:01.807Z,13.15
2019-02-11T07:04:29.743Z,13.38
2019-02-11T07:06:57.663Z,17.90
2019-02-11T07:09:25.590Z,13.60
2019-02-11T07:11:53.524Z,14.33
2019-02-11T07:14:21.438Z,14.18
2019-02-11T07:16:49.372Z,14.95
2019-02-11T07:19:17.525Z,12.43
2019-02-11T07:21:45.444Z,13.68
2019-02-11T07:24:13.364Z,17.35
2019-02-11T07:26:41.287Z,15.98
2019-02-11T07:29:09.459Z,14.03
2019-02-11T07:31:37.739Z,16.80
2019-02-11T07:34:05.919Z,13.38
2019-02-11T07:36:33.831Z,13.13
2019-02-11T07:39:01.762Z,13.55
2019-02-11T07:41:32.940Z,13.58
2019-02-11T07:44:03.699Z,17.12
2019-02-11T07:46:33.250Z,14.53
2019-02-11T07:49:01.432Z,15.38
2019-02-11T07:51:29.620Z,16.82
2019-02-11T07:53:57.539Z,13.22
2019-02-11T07:56:25.463Z,14.15
2019-02-11T07:58:53.399Z,17.32
2019-02-11T08:01:21.316Z,15.45
2019-02-11T08:03:49.235Z,18.45
2019-02-11T08:06:17.461Z,12.43
2019-02-11T08:08:45.740Z,12.93
2019-02-11T08:11:14.013Z,14.25
2019-02-11T08:13:41.939Z,19.02
2019-02-11T08:16:10.167Z,19.23
2019-02-11T08:18:38.091Z,15.00
2019-02-11T08:21:06.083Z,15.80
2019-02-11T08:23:34.293Z,11.57
2019-02-11T08:26:02.472Z,11.73
2019-02-11T08:28:30.455Z,10.05
2019-02-11T08:30:58.374Z,11.48
2019-02-11T08:33:26.299Z,11.15
2019-02-11T08:35:54.228Z,13.60
2019-02-11T08:38:22.588Z,15.68
2019-02-11T08:40:50.591Z,10.72
2019-02-11T08:43:19.611Z,11.78
2019-02-11T08:45:47.582Z,10.80
2019-02-11T08:48:15.502Z,12.80
2019-02-11T08:50:43.419Z,13.53
2019-02-11T08:53:11.340Z,12.60
2019-02-11T08:55:39.323Z,9.00
2019-02-11T08:58:07.239Z,8.85
2019-02-11T09:00:35.227Z,10.43
2019-02-11T09:03:03.139Z,10.48
2019-02-11T09:05:32.391Z,13.85
2019-02-11T09:08:00.932Z,16.87
2019-02-11T09:10:29.265Z,9.58
2019-02-11T09:12:57.447Z,11.08
2019-02-11T09:15:25.500Z,10.10
2019-02-11T09:17:53.439Z,14.38
2019-02-11T09:20:21.425Z,12.30
2019-02-11T09:22:49.650Z,11.20
2019-02-11T09:25:17.927Z,14.58
2019-02-11T09:27:45.835Z,9.28
2019-02-11T09:30:15.109Z,11.33
2019-02-11T09:32:43.024Z,11.05
2019-02-11T09:35:10.943Z,9.40
2019-02-11T09:37:38.879Z,10.85
2019-02-11T09:40:08.564Z,12.23
2019-02-11T09:42:36.717Z,8.78
2019-02-11T09:45:06.259Z,11.48
2019-02-11T09:47:34.175Z,10.85
2019-02-11T09:50:03.863Z,8.90
2019-02-11T09:52:32.225Z,11.88
2019-02-11T09:55:00.263Z,8.70
2019-02-11T09:57:29.147Z,9.60
2019-02-11T09:59:57.072Z,10.08
2019-02-11T10:02:25.216Z,8.93
2019-02-11T10:04:53.135Z,11.20
2019-02-11T10:07:21.047Z,5.97
2019-02-11T10:09:48.975Z,11.83
2019-02-11T10:12:21.323Z,9.93
2019-02-11T10:14:46.497Z,6.72
2019-02-11T10:17:14.403Z,8.03
2019-02-11T10:19:42.579Z,7.95
2019-02-11T10:22:10.491Z,6.12
2019-02-11T10:24:38.399Z,8.80
2019-02-11T10:27:06.568Z,6.00
2019-02-11T10:29:34.712Z,9.13
2019-02-11T10:32:02.623Z,10.23
2019-02-11T10:34:30.547Z,11.00
2019-02-11T10:36:58.462Z,7.75
2019-02-11T10:39:26.408Z,9.13
2019-02-11T10:41:54.611Z,8.65
2019-02-11T10:44:22.532Z,12.23
2019-02-11T10:46:50.480Z,12.13
2019-02-11T10:49:18.392Z,12.35
2019-02-11T10:51:46.307Z,14.18
2019-02-11T10:54:14.453Z,7.70
2019-02-11T10:56:43.435Z,9.50
2019-02-11T10:59:11.360Z,10.78
2019-02-11T11:01:39.276Z,11.75
2019-02-11T11:04:07.204Z,9.03
2019-02-11T11:06:35.415Z,8.20
2019-02-11T11:09:04.674Z,8.98
2019-02-11T11:11:34.198Z,9.08
2019-02-11T11:14:02.175Z,7.97
2019-02-11T11:16:30.277Z,7.90
2019-02-11T11:18:59.262Z,10.88
2019-02-11T11:21:27.419Z,6.67
2019-02-11T11:23:55.587Z,9.65
2019-02-11T11:26:23.499Z,6.72
2019-02-11T11:28:51.483Z,10.90
2019-02-11T11:31:19.399Z,6.87
2019-02-11T11:33:47.327Z,13.35
2019-02-11T11:36:15.488Z,9.73
2019-02-11T11:38:43.631Z,9.10
2019-02-11T11:41:11.543Z,7.70
2019-02-11T11:43:39.467Z,10.48
2019-02-11T11:46:07.379Z,7.05
2019-02-11T11:48:35.300Z,9.30
2019-02-11T11:51:03.215Z,7.15
2019-02-11T11:53:31.379Z,7.97
2019-02-11T11:56:02.335Z,6.30
2019-02-11T11:58:29.080Z,10.38
2019-02-11T12:00:57.025Z,9.58
2019-02-11T12:03:25.216Z,8.23
2019-02-11T12:05:53.140Z,5.85
2019-02-11T12:08:21.043Z,8.58
2019-02-11T12:10:48.980Z,6.53
2019-02-11T12:13:22.537Z,9.85
2019-02-11T12:15:46.565Z,6.20
2019-02-11T12:18:14.480Z,5.65
2019-02-11T12:20:42.382Z,6.67
2019-02-11T12:23:10.307Z,9.40
2019-02-11T12:25:38.231Z,7.70
2019-02-11T12:28:06.242Z,4.22
2019-02-11T12:30:34.119Z,6.60
2019-02-11T12:33:02.069Z,6.50
2019-02-11T12:35:30.019Z,7.97
2019-02-11T12:37:57.945Z,6.67
2019-02-11T12:40:25.928Z,5.22
2019-02-11T12:42:54.294Z,7.60
2019-02-11T12:45:23.415Z,3.87
2019-02-11T12:47:51.354Z,5.67
2019-02-11T12:50:19.248Z,5.92
2019-02-11T12:52:47.183Z,6.62
2019-02-11T12:55:15.554Z,3.87
2019-02-11T12:57:43.476Z,6.12
2019-02-11T13:00:16.548Z,6.53
2019-02-11T13:02:42.655Z,6.10
2019-02-11T13:05:11.037Z,4.25
2019-02-11T13:07:38.957Z,9.43
2019-02-11T13:10:08.710Z,5.72
2019-02-11T13:12:36.637Z,4.65
2019-02-11T13:15:05.307Z,4.25
2019-02-11T13:17:34.960Z,8.55
2019-02-11T13:20:08.702Z,7.45
2019-02-11T13:22:33.194Z,5.25
2019-02-11T13:25:01.142Z,5.03
2019-02-11T13:27:29.133Z,6.12
2019-02-11T13:29:57.035Z,4.90
2019-02-11T13:32:26.094Z,8.35
2019-02-11T13:34:54.176Z,5.55
2019-02-11T13:37:23.303Z,7.78
2019-02-11T13:39:51.221Z,4.17
2019-02-11T13:42:19.136Z,6.62
2019-02-11T13:44:47.056Z,3.62
2019-02-11T13:47:14.975Z,6.72
2019-02-11T13:49:46.197Z,4.03
2019-02-11T13:52:12.609Z,7.50
2019-02-11T13:54:40.712Z,7.90
2019-02-11T13:57:08.694Z,5.33
2019-02-11T13:59:36.597Z,7.58
2019-02-11T14:02:04.540Z,10.23
2019-02-11T14:04:33.551Z,8.85
2019-02-11T14:07:01.520Z,6.67
2019-02-11T14:09:30.690Z,6.25
2019-02-11T14:11:58.632Z,7.10
2019-02-11T14:14:27.737Z,9.85
2019-02-11T14:16:55.652Z,6.20
2019-02-11T14:19:24.038Z,6.75
2019-02-11T14:21:52.391Z,7.85
2019-02-11T14:24:20.312Z,7.28
2019-02-11T14:26:49.422Z,4.72
2019-02-11T14:29:17.345Z,8.08
2019-02-11T14:31:45.325Z,4.22
2019-02-11T14:34:13.303Z,6.97
2019-02-11T14:36:43.569Z,9.13
2019-02-11T14:39:11.622Z,7.67
2019-02-11T14:41:39.746Z,7.78
2019-02-11T14:44:07.736Z,7.12
2019-02-11T14:46:35.719Z,7.08
2019-02-11T14:49:03.769Z,5.90
2019-02-11T14:51:32.000Z,7.90
2019-02-11T14:53:59.975Z,9.13
2019-02-11T14:56:28.192Z,9.95
2019-02-11T14:58:56.111Z,9.65
2019-02-11T15:01:24.257Z,5.20
2019-02-11T15:03:52.176Z,6.35
2019-02-11T15:06:20.083Z,5.60
2019-02-11T15:08:48.160Z,4.95
2019-02-11T15:11:16.320Z,5.75
2019-02-11T15:13:44.536Z,9.20
2019-02-11T15:16:12.719Z,8.23
2019-02-11T15:18:40.631Z,8.10
2019-02-11T15:21:08.543Z,7.58
2019-02-11T15:23:36.740Z,16.02
2019-02-11T15:26:04.659Z,7.37
2019-02-11T15:28:32.587Z,10.30
2019-02-11T15:31:00.506Z,7.42
2019-02-11T15:33:28.414Z,8.35
2019-02-11T15:35:56.332Z,8.58
2019-02-11T15:38:24.238Z,6.78
2019-02-11T15:40:52.152Z,5.80
2019-02-11T15:50:06.091Z,8.38
2019-02-11T15:52:34.420Z,9.05
2019-02-11T15:55:02.748Z,7.15
2019-02-11T15:57:31.195Z,7.55
2019-02-11T16:00:00.814Z,7.53
2019-02-11T16:02:30.374Z,10.35
2019-02-11T16:05:02.402Z,12.60
2019-02-11T16:07:28.850Z,8.03
2019-02-11T16:09:57.172Z,10.78
2019-02-11T16:12:25.654Z,13.45
2019-02-11T16:14:54.046Z,11.35
2019-02-11T16:17:22.478Z,10.30
2019-02-11T16:19:50.969Z,7.72
2019-02-11T16:22:18.943Z,8.33
2019-02-11T16:24:46.857Z,4.97
2019-02-11T16:27:14.767Z,6.33
2019-02-11T16:29:42.954Z,6.22
2019-02-11T16:32:10.871Z,6.42
2019-02-11T16:34:38.784Z,5.30
2019-02-11T16:37:06.993Z,5.10
2019-02-11T16:39:35.156Z,5.72
2019-02-11T16:42:03.060Z,4.35
2019-02-11T16:44:31.306Z,5.05
2019-02-11T16:46:59.295Z,7.65
2019-02-11T16:49:27.215Z,6.40
2019-02-11T16:51:55.131Z,7.65
2019-02-11T16:54:23.049Z,9.00
2019-02-11T16:56:51.275Z,8.50
2019-02-11T16:59:19.183Z,8.85
2019-02-11T17:01:47.427Z,15.58
2019-02-11T17:04:15.344Z,11.60
2019-02-11T17:06:43.273Z,13.50
2019-02-11T17:09:11.187Z,12.40
2019-02-11T17:11:39.419Z,12.30
2019-02-11T17:14:07.349Z,12.65
2019-02-11T17:16:35.260Z,11.25
2019-02-11T17:19:09.224Z,13.08
2019-02-11T17:21:33.292Z,16.48
2019-02-11T17:24:01.215Z,13.15
2019-02-11T17:26:29.119Z,16.20
2019-02-11T17:28:57.283Z,17.80
2019-02-11T17:31:25.203Z,19.55
2019-02-11T17:33:54.195Z,17.87
2019-02-11T17:36:22.110Z,14.33
2019-02-11T17:38:50.035Z,18.07
2019-02-11T17:41:18.198Z,15.15
2019-02-11T17:43:46.460Z,15.38
2019-02-11T17:46:14.380Z,17.05
2019-02-11T17:48:42.608Z,19.55
2019-02-11T17:51:10.608Z,18.23
2019-02-11T17:53:38.523Z,16.17
2019-02-11T17:56:06.461Z,23.92
2019-02-11T17:58:34.375Z,16.05
2019-02-11T18:01:02.364Z,16.90
2019-02-11T18:03:30.292Z,17.40
2019-02-11T18:05:58.219Z,17.48
2019-02-11T18:08:26.147Z,16.62
2019-02-11T18:10:54.071Z,20.75
2019-02-11T18:13:21.995Z,19.10
2019-02-11T18:15:49.918Z,20.97
2019-02-11T18:18:18.079Z,23.47
2019-02-11T18:20:46.000Z,19.82
2019-02-11T18:23:13.929Z,19.48
2019-02-11T18:25:42.102Z,21.73
2019-02-11T18:28:10.283Z,22.98
2019-02-11T18:30:38.216Z,19.23
2019-02-11T18:33:06.143Z,23.27
2019-02-11T18:35:34.073Z,17.92
2019-02-11T18:38:01.994Z,20.80
2019-02-11T18:40:29.922Z,26.50
2019-02-11T18:42:57.871Z,24.55
2019-02-11T18:45:25.800Z,21.62
2019-02-11T18:47:53.715Z,18.77
2019-02-11T18:50:21.940Z,25.05
2019-02-11T18:52:50.095Z,26.55
2019-02-11T18:55:21.111Z,24.50
2019-02-11T18:57:49.031Z,26.80
2019-02-11T19:00:19.228Z,27.10
2019-02-11T19:02:47.867Z,21.42
2019-02-11T19:05:15.854Z,19.87
2019-02-11T19:07:44.362Z,20.25
2019-02-11T19:10:13.055Z,22.77
2019-02-11T19:12:40.983Z,28.47
2019-02-11T19:15:10.074Z,22.35
2019-02-11T19:17:38.068Z,23.07
2019-02-11T19:20:07.488Z,24.77
2019-02-11T19:22:35.828Z,24.72
2019-02-11T19:25:04.927Z,21.97
2019-02-11T19:27:32.872Z,24.87
2019-02-11T19:30:00.792Z,25.05
2019-02-11T19:32:28.711Z,25.05
2019-02-11T19:34:56.923Z,25.45
2019-02-11T19:37:25.072Z,20.25
2019-02-11T19:39:53.274Z,23.22
2019-02-11T19:42:21.196Z,19.92
2019-02-11T19:44:49.352Z,25.92
2019-02-11T19:47:17.267Z,28.47
2019-02-11T19:49:51.677Z,19.92
2019-02-11T19:52:14.808Z,22.75
2019-02-11T19:54:45.361Z,23.87
2019-02-11T19:57:13.285Z,28.15
2019-02-11T19:59:41.199Z,25.20
2019-02-11T20:02:09.127Z,20.32
2019-02-11T20:04:37.314Z,25.17
2019-02-11T20:07:05.242Z,21.20
2019-02-11T20:09:33.277Z,23.38
2019-02-11T20:12:01.277Z,22.02
2019-02-11T20:14:29.248Z,20.25
2019-02-11T20:16:57.172Z,24.82
2019-02-11T20:19:25.116Z,29.72
2019-02-11T20:21:53.143Z,17.17
2019-02-11T20:24:21.083Z,25.05
2019-02-11T20:26:48.995Z,17.65
2019-02-11T20:29:17.265Z,25.02
2019-02-11T20:31:45.183Z,16.85
2019-02-11T20:34:13.417Z,25.17
2019-02-11T20:36:41.579Z,23.55
2019-02-11T20:39:10.674Z,28.25
2019-02-11T20:41:38.860Z,20.95
2019-02-11T20:44:06.810Z,20.00
2019-02-11T20:46:35.012Z,17.95
2019-02-11T20:49:02.939Z,22.95
2019-02-11T20:51:30.861Z,23.77
2019-02-11T20:53:58.785Z,20.05
2019-02-11T20:56:26.745Z,20.30
2019-02-11T20:58:54.679Z,34.40
2019-02-11T21:01:22.596Z,23.35
2019-02-11T21:03:50.824Z,22.55
2019-02-11T21:06:18.732Z,20.08
2019-02-11T21:08:46.659Z,18.75
2019-02-11T21:11:14.567Z,24.75
2019-02-11T21:13:42.514Z,29.25
2019-02-11T21:16:10.432Z,21.42
2019-02-11T21:18:38.424Z,28.77
2019-02-11T21:21:06.336Z,24.32
2019-02-11T21:23:34.267Z,24.85
2019-02-11T21:26:02.479Z,30.80
2019-02-11T21:28:30.419Z,22.02
2019-02-11T21:30:58.326Z,21.57
2019-02-11T21:33:26.243Z,19.23
2019-02-11T21:35:54.170Z,18.30
2019-02-11T21:38:22.083Z,18.35
2019-02-11T21:40:50.006Z,22.93
2019-02-11T21:43:17.919Z,24.85
2019-02-11T21:45:46.067Z,17.27
2019-02-11T21:48:13.980Z,20.60
2019-02-11T21:50:41.899Z,25.20
2019-02-11T21:53:09.815Z,23.40
2019-02-11T21:55:37.734Z,29.98
2019-02-11T21:58:05.661Z,22.45
2019-02-11T22:00:34.556Z,20.60
2019-02-11T22:03:02.826Z,24.63
2019-02-11T22:05:30.719Z,32.28
2019-02-11T22:07:58.631Z,30.90
2019-02-11T22:10:26.551Z,20.95
2019-02-11T22:12:54.465Z,23.12
2019-02-11T22:15:22.387Z,21.07
2019-02-11T22:17:50.322Z,26.82
2019-02-11T22:20:19.124Z,17.70
2019-02-11T22:22:47.071Z,22.50
2019-02-11T22:25:15.017Z,27.13
2019-02-11T22:27:42.916Z,22.60
2019-02-11T22:30:12.097Z,31.17
2019-02-11T22:32:40.013Z,28.47
2019-02-11T22:35:09.196Z,27.45
2019-02-11T22:37:37.187Z,26.75
2019-02-11T22:40:06.794Z,30.70
2019-02-11T22:42:34.975Z,32.15
2019-02-11T22:45:02.887Z,31.10
2019-02-11T22:47:30.811Z,31.25
2019-02-11T22:49:58.733Z,23.42
2019-02-11T22:52:26.644Z,29.37
2019-02-11T22:54:54.566Z,26.93
2019-02-11T22:57:22.483Z,21.52
2019-02-11T22:59:50.416Z,29.85
2019-02-11T23:02:18.327Z,25.90
2019-02-11T23:04:46.239Z,26.25
2019-02-11T23:07:14.159Z,26.93
2019-02-11T23:09:42.376Z,26.52
2019-02-11T23:12:10.309Z,27.22
2019-02-11T23:14:38.219Z,29.45
2019-02-11T23:17:06.399Z,27.82
2019-02-11T23:19:34.321Z,25.17
2019-02-11T23:22:02.232Z,25.70
2019-02-11T23:24:30.152Z,29.30
2019-02-11T23:26:58.393Z,26.35
2019-02-11T23:29:26.311Z,22.37
2019-02-11T23:31:54.227Z,23.73
2019-02-11T23:34:22.416Z,27.42
2019-02-11T23:36:50.331Z,24.30
2019-02-11T23:39:18.254Z,30.75
2019-02-11T23:41:46.170Z,22.93
2019-02-11T23:44:14.411Z,19.37
2019-02-11T23:46:42.323Z,25.85
2019-02-11T23:49:10.247Z,19.82
2019-02-11T23:51:38.159Z,20.85
2019-02-11T23:54:06.076Z,25.82
2019-02-11T23:56:34.000Z,27.17
2019-02-11T23:59:01.927Z,21.60
